sensor_id;sensor_type;location;lat;lon;timestamp;pressure;altitude;pressure_sealevel;temperature;humidity
70141;BME280;57508;43.086;0.136;2022-08-20T00:00:49;96358.66;;;24.97;44.98
70141;BME280;57508;43.086;0.136;2022-08-20T00:03:33;96351.91;;;25.83;43.27
70141;BME280;57508;43.086;0.136;2022-08-20T00:06:00;96353.53;;;26.29;42.29
70141;BME280;57508;43.086;0.136;2022-08-20T00:08:27;96352.34;;;26.30;42.35
70141;BME280;57508;43.086;0.136;2022-08-20T00:10:53;96346.75;;;25.02;44.83
70141;BME280;57508;43.086;0.136;2022-08-20T00:13:23;96348.75;;;26.19;42.74
70141;BME280;57508;43.086;0.136;2022-08-20T00:15:48;96350.63;;;26.60;40.89
70141;BME280;57508;43.086;0.136;2022-08-20T00:18:14;96346.84;;;25.78;43.03
70141;BME280;57508;43.086;0.136;2022-08-20T00:20:47;96348.94;;;26.37;41.77
70141;BME280;57508;43.086;0.136;2022-08-20T00:23:13;96345.97;;;26.53;41.14
70141;BME280;57508;43.086;0.136;2022-08-20T00:25:39;96340.22;;;26.62;41.42
70141;BME280;57508;43.086;0.136;2022-08-20T00:28:05;96342.53;;;26.63;40.75
70141;BME280;57508;43.086;0.136;2022-08-20T00:30:34;96342.22;;;26.72;40.93
70141;BME280;57508;43.086;0.136;2022-08-20T00:33:05;96342.03;;;26.47;40.90
70141;BME280;57508;43.086;0.136;2022-08-20T00:35:34;96337.31;;;26.40;41.54
70141;BME280;57508;43.086;0.136;2022-08-20T00:38:00;96335.72;;;26.32;41.31
70141;BME280;57508;43.086;0.136;2022-08-20T00:40:41;96327.28;;;25.95;42.45
70141;BME280;57508;43.086;0.136;2022-08-20T00:43:25;96329.75;;;25.01;44.18
70141;BME280;57508;43.086;0.136;2022-08-20T00:45:51;96316.84;;;25.21;44.18
70141;BME280;57508;43.086;0.136;2022-08-20T00:48:21;96318.25;;;24.81;44.88
70141;BME280;57508;43.086;0.136;2022-08-20T00:50:47;96316.19;;;25.32;43.91
70141;BME280;57508;43.086;0.136;2022-08-20T00:53:13;96314.53;;;24.89;44.80
70141;BME280;57508;43.086;0.136;2022-08-20T00:55:39;96313.13;;;25.68;42.69
70141;BME280;57508;43.086;0.136;2022-08-20T00:58:07;96310.44;;;25.71;42.21
70141;BME280;57508;43.086;0.136;2022-08-20T01:00:39;96313.81;;;25.27;43.86
70141;BME280;57508;43.086;0.136;2022-08-20T01:03:08;96315.72;;;26.02;41.99
70141;BME280;57508;43.086;0.136;2022-08-20T01:05:37;96317.38;;;25.69;42.20
70141;BME280;57508;43.086;0.136;2022-08-20T01:08:04;96313.28;;;25.48;42.85
70141;BME280;57508;43.086;0.136;2022-08-20T01:10:36;96309.63;;;24.71;44.27
70141;BME280;57508;43.086;0.136;2022-08-20T01:13:10;96311.59;;;25.74;42.42
70141;BME280;57508;43.086;0.136;2022-08-20T01:15:42;96308.66;;;25.14;44.07
70141;BME280;57508;43.086;0.136;2022-08-20T01:18:15;96302.22;;;24.65;45.28
70141;BME280;57508;43.086;0.136;2022-08-20T01:20:47;96308.69;;;26.39;41.29
70141;BME280;57508;43.086;0.136;2022-08-20T01:28:34;96319.03;;;26.86;39.64
70141;BME280;57508;43.086;0.136;2022-08-20T01:31:01;96304.72;;;26.89;39.61
70141;BME280;57508;43.086;0.136;2022-08-20T01:33:26;96315.09;;;26.76;39.97
70141;BME280;57508;43.086;0.136;2022-08-20T01:35:53;96316.53;;;26.51;40.50
70141;BME280;57508;43.086;0.136;2022-08-20T01:38:19;96318.19;;;26.74;39.70
70141;BME280;57508;43.086;0.136;2022-08-20T01:41:15;96315.88;;;26.73;39.82
70141;BME280;57508;43.086;0.136;2022-08-20T01:43:47;96313.84;;;26.59;40.30
70141;BME280;57508;43.086;0.136;2022-08-20T01:46:12;96315.47;;;26.71;39.29
70141;BME280;57508;43.086;0.136;2022-08-20T01:48:40;96320.00;;;26.52;39.72
70141;BME280;57508;43.086;0.136;2022-08-20T01:51:08;96315.31;;;26.45;40.24
70141;BME280;57508;43.086;0.136;2022-08-20T01:53:37;96319.84;;;26.30;40.21
70141;BME280;57508;43.086;0.136;2022-08-20T01:56:08;96316.84;;;26.43;40.23
70141;BME280;57508;43.086;0.136;2022-08-20T01:58:37;96316.59;;;26.13;40.62
70141;BME280;57508;43.086;0.136;2022-08-20T02:01:04;96310.19;;;25.49;42.20
70141;BME280;57508;43.086;0.136;2022-08-20T02:03:29;96311.22;;;25.72;41.39
70141;BME280;57508;43.086;0.136;2022-08-20T02:05:58;96303.59;;;25.85;40.95
70141;BME280;57508;43.086;0.136;2022-08-20T02:08:24;96303.06;;;25.68;41.27
70141;BME280;57508;43.086;0.136;2022-08-20T02:10:50;96309.56;;;25.63;41.74
70141;BME280;57508;43.086;0.136;2022-08-20T02:13:15;96304.22;;;25.71;41.29
70141;BME280;57508;43.086;0.136;2022-08-20T02:15:41;96294.78;;;25.19;42.98
70141;BME280;57508;43.086;0.136;2022-08-20T02:18:09;96298.94;;;25.47;41.95
70141;BME280;57508;43.086;0.136;2022-08-20T02:20:35;96297.53;;;25.23;43.15
70141;BME280;57508;43.086;0.136;2022-08-20T02:23:02;96290.25;;;25.61;41.80
70141;BME280;57508;43.086;0.136;2022-08-20T02:25:31;96291.56;;;25.41;42.04
70141;BME280;57508;43.086;0.136;2022-08-20T02:28:01;96282.94;;;25.66;41.16
70141;BME280;57508;43.086;0.136;2022-08-20T02:30:30;96288.50;;;25.46;41.73
70141;BME280;57508;43.086;0.136;2022-08-20T02:32:58;96280.81;;;25.48;42.02
70141;BME280;57508;43.086;0.136;2022-08-20T02:35:24;96287.06;;;25.56;41.48
70141;BME280;57508;43.086;0.136;2022-08-20T02:37:50;96281.44;;;25.34;42.20
70141;BME280;57508;43.086;0.136;2022-08-20T02:40:18;96285.50;;;25.55;41.76
70141;BME280;57508;43.086;0.136;2022-08-20T02:42:43;96288.53;;;24.27;44.92
70141;BME280;57508;43.086;0.136;2022-08-20T02:45:14;96285.16;;;24.60;44.84
70141;BME280;57508;43.086;0.136;2022-08-20T02:47:40;96285.34;;;25.40;42.38
70141;BME280;57508;43.086;0.136;2022-08-20T02:50:11;96281.34;;;24.92;43.43
70141;BME280;57508;43.086;0.136;2022-08-20T02:52:36;96283.78;;;24.74;44.04
70141;BME280;57508;43.086;0.136;2022-08-20T02:55:02;96281.00;;;24.97;43.40
70141;BME280;57508;43.086;0.136;2022-08-20T02:57:28;96283.31;;;24.95;43.70
70141;BME280;57508;43.086;0.136;2022-08-20T02:59:54;96280.34;;;25.42;42.11
70141;BME280;57508;43.086;0.136;2022-08-20T03:02:20;96278.16;;;25.17;42.34
70141;BME280;57508;43.086;0.136;2022-08-20T03:04:46;96276.19;;;25.14;42.71
70141;BME280;57508;43.086;0.136;2022-08-20T03:07:11;96275.31;;;25.41;42.14
70141;BME280;57508;43.086;0.136;2022-08-20T03:09:37;96278.31;;;25.32;42.76
70141;BME280;57508;43.086;0.136;2022-08-20T03:12:04;96274.47;;;25.33;42.06
70141;BME280;57508;43.086;0.136;2022-08-20T03:14:31;96269.63;;;25.15;43.03
70141;BME280;57508;43.086;0.136;2022-08-20T03:16:57;96268.00;;;25.41;41.94
70141;BME280;57508;43.086;0.136;2022-08-20T03:19:23;96263.47;;;25.53;41.97
70141;BME280;57508;43.086;0.136;2022-08-20T03:21:48;96266.47;;;25.09;42.90
70141;BME280;57508;43.086;0.136;2022-08-20T03:24:14;96266.03;;;25.38;41.68
70141;BME280;57508;43.086;0.136;2022-08-20T03:26:39;96269.31;;;25.20;42.79
70141;BME280;57508;43.086;0.136;2022-08-20T03:29:05;96263.25;;;24.96;42.91
70141;BME280;57508;43.086;0.136;2022-08-20T03:31:30;96265.94;;;24.96;42.96
70141;BME280;57508;43.086;0.136;2022-08-20T03:33:55;96271.81;;;24.17;44.72
70141;BME280;57508;43.086;0.136;2022-08-20T03:36:22;96265.06;;;24.58;44.20
70141;BME280;57508;43.086;0.136;2022-08-20T03:38:48;96272.53;;;24.68;44.04
70141;BME280;57508;43.086;0.136;2022-08-20T03:41:14;96270.25;;;24.70;43.98
70141;BME280;57508;43.086;0.136;2022-08-20T03:43:39;96280.44;;;24.03;45.37
70141;BME280;57508;43.086;0.136;2022-08-20T03:46:06;96274.72;;;24.32;44.84
70141;BME280;57508;43.086;0.136;2022-08-20T03:48:32;96268.66;;;24.69;43.91
70141;BME280;57508;43.086;0.136;2022-08-20T03:50:57;96271.47;;;25.42;41.75
70141;BME280;57508;43.086;0.136;2022-08-20T03:53:26;96276.13;;;25.10;42.10
70141;BME280;57508;43.086;0.136;2022-08-20T03:55:56;96272.84;;;25.24;42.05
70141;BME280;57508;43.086;0.136;2022-08-20T03:58:26;96266.16;;;25.53;41.02
70141;BME280;57508;43.086;0.136;2022-08-20T04:00:53;96269.69;;;25.57;40.75
70141;BME280;57508;43.086;0.136;2022-08-20T04:03:20;96276.25;;;25.56;40.88
70141;BME280;57508;43.086;0.136;2022-08-20T04:05:46;96277.56;;;24.70;42.42
70141;BME280;57508;43.086;0.136;2022-08-20T04:08:17;96278.81;;;24.76;43.15
70141;BME280;57508;43.086;0.136;2022-08-20T04:10:44;96274.59;;;24.79;43.19
70141;BME280;57508;43.086;0.136;2022-08-20T04:13:12;96275.53;;;24.90;42.22
70141;BME280;57508;43.086;0.136;2022-08-20T04:15:37;96277.34;;;25.13;41.71
70141;BME280;57508;43.086;0.136;2022-08-20T04:18:08;96287.78;;;24.84;42.93
70141;BME280;57508;43.086;0.136;2022-08-20T04:20:37;96288.06;;;23.97;44.44
70141;BME280;57508;43.086;0.136;2022-08-20T04:23:03;96282.19;;;24.69;42.94
70141;BME280;57508;43.086;0.136;2022-08-20T04:25:30;96286.34;;;24.90;42.61
70141;BME280;57508;43.086;0.136;2022-08-20T04:28:00;96284.06;;;24.92;42.00
70141;BME280;57508;43.086;0.136;2022-08-20T04:30:26;96281.75;;;24.94;41.96
70141;BME280;57508;43.086;0.136;2022-08-20T04:32:52;96278.75;;;24.72;42.96
70141;BME280;57508;43.086;0.136;2022-08-20T04:35:18;96285.03;;;24.80;42.21
70141;BME280;57508;43.086;0.136;2022-08-20T04:37:45;96286.34;;;24.90;41.90
70141;BME280;57508;43.086;0.136;2022-08-20T04:40:14;96293.34;;;24.95;42.66
70141;BME280;57508;43.086;0.136;2022-08-20T04:42:58;96283.06;;;24.77;42.75
70141;BME280;57508;43.086;0.136;2022-08-20T04:45:24;96287.38;;;24.55;43.67
70141;BME280;57508;43.086;0.136;2022-08-20T04:47:50;96284.47;;;24.67;43.04
70141;BME280;57508;43.086;0.136;2022-08-20T04:50:17;96288.28;;;24.90;42.65
70141;BME280;57508;43.086;0.136;2022-08-20T04:52:43;96292.34;;;23.98;44.46
70141;BME280;57508;43.086;0.136;2022-08-20T04:55:09;96289.56;;;23.95;44.35
70141;BME280;57508;43.086;0.136;2022-08-20T04:57:35;96293.56;;;22.99;47.26
70141;BME280;57508;43.086;0.136;2022-08-20T05:00:06;96292.00;;;23.57;45.84
70141;BME280;57508;43.086;0.136;2022-08-20T05:02:32;96292.94;;;24.66;43.00
70141;BME280;57508;43.086;0.136;2022-08-20T05:05:00;96292.88;;;24.62;42.86
70141;BME280;57508;43.086;0.136;2022-08-20T05:07:25;96294.91;;;24.96;41.94
70141;BME280;57508;43.086;0.136;2022-08-20T05:09:51;96293.13;;;25.07;41.30
70141;BME280;57508;43.086;0.136;2022-08-20T05:12:16;96293.22;;;25.15;41.13
70141;BME280;57508;43.086;0.136;2022-08-20T05:14:42;96300.88;;;25.09;41.53
70141;BME280;57508;43.086;0.136;2022-08-20T05:17:08;96303.13;;;24.22;43.29
70141;BME280;57508;43.086;0.136;2022-08-20T05:19:34;96307.13;;;23.62;45.10
70141;BME280;57508;43.086;0.136;2022-08-20T05:22:04;96303.41;;;24.40;43.39
70141;BME280;57508;43.086;0.136;2022-08-20T05:24:29;96301.88;;;23.92;44.74
70141;BME280;57508;43.086;0.136;2022-08-20T05:26:55;96287.88;;;24.33;43.00
70141;BME280;57508;43.086;0.136;2022-08-20T05:29:21;96309.25;;;24.46;43.21
70141;BME280;57508;43.086;0.136;2022-08-20T05:31:48;96300.22;;;24.34;43.90
70141;BME280;57508;43.086;0.136;2022-08-20T05:34:13;96311.25;;;24.49;43.47
70141;BME280;57508;43.086;0.136;2022-08-20T05:36:43;96309.38;;;24.26;44.39
70141;BME280;57508;43.086;0.136;2022-08-20T05:39:10;96314.91;;;24.37;43.93
70141;BME280;57508;43.086;0.136;2022-08-20T05:41:37;96304.97;;;24.18;44.10
70141;BME280;57508;43.086;0.136;2022-08-20T05:44:03;96312.53;;;23.85;45.01
70141;BME280;57508;43.086;0.136;2022-08-20T05:46:29;96312.09;;;24.06;44.62
70141;BME280;57508;43.086;0.136;2022-08-20T05:48:55;96314.09;;;24.60;43.05
70141;BME280;57508;43.086;0.136;2022-08-20T05:51:21;96311.09;;;24.92;42.59
70141;BME280;57508;43.086;0.136;2022-08-20T05:53:46;96314.22;;;25.29;42.02
70141;BME280;57508;43.086;0.136;2022-08-20T05:56:12;96314.69;;;24.77;42.39
70141;BME280;57508;43.086;0.136;2022-08-20T05:58:37;96321.06;;;25.53;41.90
70141;BME280;57508;43.086;0.136;2022-08-20T06:01:03;96316.78;;;25.90;40.32
70141;BME280;57508;43.086;0.136;2022-08-20T06:03:29;96322.09;;;26.21;40.32
70141;BME280;57508;43.086;0.136;2022-08-20T06:06:13;96319.22;;;26.03;40.03
70141;BME280;57508;43.086;0.136;2022-08-20T06:08:38;96311.28;;;26.84;38.77
70141;BME280;57508;43.086;0.136;2022-08-20T06:11:06;96310.69;;;27.20;38.47
70141;BME280;57508;43.086;0.136;2022-08-20T06:13:32;96312.34;;;27.54;38.30
70141;BME280;57508;43.086;0.136;2022-08-20T06:15:58;96316.91;;;27.32;37.78
70141;BME280;57508;43.086;0.136;2022-08-20T06:18:25;96319.81;;;27.97;36.79
70141;BME280;57508;43.086;0.136;2022-08-20T06:20:50;96320.56;;;28.16;36.05
70141;BME280;57508;43.086;0.136;2022-08-20T06:23:16;96309.31;;;28.50;35.33
70141;BME280;57508;43.086;0.136;2022-08-20T06:25:41;96304.63;;;28.62;34.56
70141;BME280;57508;43.086;0.136;2022-08-20T06:28:07;96304.88;;;29.11;33.85
70141;BME280;57508;43.086;0.136;2022-08-20T06:30:33;96309.75;;;29.57;33.51
70141;BME280;57508;43.086;0.136;2022-08-20T06:32:59;96305.50;;;29.48;32.67
70141;BME280;57508;43.086;0.136;2022-08-20T06:35:25;96304.75;;;29.40;32.38
70141;BME280;57508;43.086;0.136;2022-08-20T06:37:51;96300.84;;;30.05;31.83
70141;BME280;57508;43.086;0.136;2022-08-20T06:40:25;96300.75;;;30.20;30.87
70141;BME280;57508;43.086;0.136;2022-08-20T06:42:52;96299.53;;;30.28;30.60
70141;BME280;57508;43.086;0.136;2022-08-20T06:45:21;96303.91;;;30.96;30.10
70141;BME280;57508;43.086;0.136;2022-08-20T06:47:51;96297.13;;;30.76;30.11
70141;BME280;57508;43.086;0.136;2022-08-20T06:50:19;96292.81;;;31.10;29.35
70141;BME280;57508;43.086;0.136;2022-08-20T06:52:46;96300.50;;;31.54;29.38
70141;BME280;57508;43.086;0.136;2022-08-20T06:55:12;96293.72;;;31.62;28.89
70141;BME280;57508;43.086;0.136;2022-08-20T06:57:39;96294.06;;;32.16;28.60
70141;BME280;57508;43.086;0.136;2022-08-20T07:00:12;96298.19;;;32.04;27.75
70141;BME280;57508;43.086;0.136;2022-08-20T07:02:38;96295.00;;;31.81;28.64
70141;BME280;57508;43.086;0.136;2022-08-20T07:05:04;96292.53;;;32.15;28.18
70141;BME280;57508;43.086;0.136;2022-08-20T07:07:30;96295.91;;;32.47;27.73
70141;BME280;57508;43.086;0.136;2022-08-20T07:10:01;96289.88;;;33.00;27.13
70141;BME280;57508;43.086;0.136;2022-08-20T07:12:27;96285.81;;;33.08;27.29
70141;BME280;57508;43.086;0.136;2022-08-20T07:14:53;96295.88;;;32.70;27.45
70141;BME280;57508;43.086;0.136;2022-08-20T07:17:19;96280.03;;;33.60;26.00
70141;BME280;57508;43.086;0.136;2022-08-20T07:19:44;96274.47;;;33.96;25.32
70141;BME280;57508;43.086;0.136;2022-08-20T07:22:10;96277.47;;;33.69;25.70
70141;BME280;57508;43.086;0.136;2022-08-20T07:24:38;96277.47;;;34.02;25.31
70141;BME280;57508;43.086;0.136;2022-08-20T07:27:03;96270.25;;;33.92;25.44
70141;BME280;57508;43.086;0.136;2022-08-20T07:29:29;96270.56;;;34.44;25.29
70141;BME280;57508;43.086;0.136;2022-08-20T07:32:14;96268.69;;;33.57;25.30
70141;BME280;57508;43.086;0.136;2022-08-20T07:34:59;96266.06;;;34.67;24.60
70141;BME280;57508;43.086;0.136;2022-08-20T07:37:24;96263.91;;;34.88;24.98
70141;BME280;57508;43.086;0.136;2022-08-20T07:39:50;96259.56;;;35.16;24.30
70141;BME280;57508;43.086;0.136;2022-08-20T07:42:17;96260.22;;;35.98;24.32
70141;BME280;57508;43.086;0.136;2022-08-20T07:44:42;96259.59;;;36.17;22.67
70141;BME280;57508;43.086;0.136;2022-08-20T07:47:08;96253.53;;;36.80;22.14
70141;BME280;57508;43.086;0.136;2022-08-20T07:49:37;96258.47;;;37.17;21.83
70141;BME280;57508;43.086;0.136;2022-08-20T07:52:04;96256.03;;;36.87;22.41
70141;BME280;57508;43.086;0.136;2022-08-20T07:54:29;96252.22;;;37.57;21.75
70141;BME280;57508;43.086;0.136;2022-08-20T07:56:59;96259.75;;;37.66;21.17
70141;BME280;57508;43.086;0.136;2022-08-20T07:59:26;96257.06;;;37.94;21.73
70141;BME280;57508;43.086;0.136;2022-08-20T08:01:52;96257.28;;;38.19;20.86
70141;BME280;57508;43.086;0.136;2022-08-20T08:04:17;96250.81;;;38.50;21.75
70141;BME280;57508;43.086;0.136;2022-08-20T08:06:43;96249.97;;;38.96;20.80
70141;BME280;57508;43.086;0.136;2022-08-20T08:09:12;96251.22;;;38.95;19.45
70141;BME280;57508;43.086;0.136;2022-08-20T08:11:40;96257.34;;;39.52;21.11
70141;BME280;57508;43.086;0.136;2022-08-20T08:14:09;96249.03;;;40.10;21.21
70141;BME280;57508;43.086;0.136;2022-08-20T08:16:36;96253.00;;;39.85;20.76
70141;BME280;57508;43.086;0.136;2022-08-20T08:19:04;96247.53;;;40.39;20.77
70141;BME280;57508;43.086;0.136;2022-08-20T08:21:31;96250.69;;;41.53;20.66
70141;BME280;57508;43.086;0.136;2022-08-20T08:23:56;96246.59;;;41.69;20.38
70141;BME280;57508;43.086;0.136;2022-08-20T08:26:22;96241.41;;;41.56;20.23
70141;BME280;57508;43.086;0.136;2022-08-20T08:28:48;96250.75;;;41.59;19.99
70141;BME280;57508;43.086;0.136;2022-08-20T08:31:13;96256.28;;;40.77;21.34
70141;BME280;57508;43.086;0.136;2022-08-20T08:33:39;96257.19;;;41.50;19.69
70141;BME280;57508;43.086;0.136;2022-08-20T08:36:12;96253.91;;;41.15;18.71
70141;BME280;57508;43.086;0.136;2022-08-20T08:38:40;96259.59;;;41.78;19.91
70141;BME280;57508;43.086;0.136;2022-08-20T08:41:17;96256.78;;;41.93;18.39
70141;BME280;57508;43.086;0.136;2022-08-20T08:43:48;96251.41;;;42.78;19.06
70141;BME280;57508;43.086;0.136;2022-08-20T08:46:19;96256.38;;;42.69;18.08
70141;BME280;57508;43.086;0.136;2022-08-20T08:48:47;96254.97;;;43.11;17.92
70141;BME280;57508;43.086;0.136;2022-08-20T08:51:17;96255.72;;;42.59;16.95
70141;BME280;57508;43.086;0.136;2022-08-20T08:53:49;96262.53;;;41.89;19.10
70141;BME280;57508;43.086;0.136;2022-08-20T08:56:17;96255.34;;;41.62;18.38
70141;BME280;57508;43.086;0.136;2022-08-20T08:58:43;96256.97;;;42.58;18.32
70141;BME280;57508;43.086;0.136;2022-08-20T09:01:14;96263.22;;;42.05;18.16
70141;BME280;57508;43.086;0.136;2022-08-20T09:03:41;96259.41;;;41.46;18.67
70141;BME280;57508;43.086;0.136;2022-08-20T09:06:15;96253.06;;;42.44;17.90
70141;BME280;57508;43.086;0.136;2022-08-20T09:08:47;96263.06;;;42.14;18.55
70141;BME280;57508;43.086;0.136;2022-08-20T09:11:14;96264.75;;;41.85;17.80
70141;BME280;57508;43.086;0.136;2022-08-20T09:13:42;96255.22;;;42.60;18.27
70141;BME280;57508;43.086;0.136;2022-08-20T09:16:08;96251.19;;;43.14;18.46
70141;BME280;57508;43.086;0.136;2022-08-20T09:18:33;96258.22;;;42.09;18.02
70141;BME280;57508;43.086;0.136;2022-08-20T09:20:59;96256.06;;;41.98;18.04
70141;BME280;57508;43.086;0.136;2022-08-20T09:23:24;96247.31;;;43.44;17.72
70141;BME280;57508;43.086;0.136;2022-08-20T09:25:50;96253.28;;;42.40;17.48
70141;BME280;57508;43.086;0.136;2022-08-20T09:28:15;96249.75;;;42.19;18.21
70141;BME280;57508;43.086;0.136;2022-08-20T09:30:41;96259.59;;;42.94;18.08
70141;BME280;57508;43.086;0.136;2022-08-20T09:33:06;96262.84;;;43.19;17.84
70141;BME280;57508;43.086;0.136;2022-08-20T09:35:32;96258.59;;;44.28;17.13
70141;BME280;57508;43.086;0.136;2022-08-20T09:37:58;96256.00;;;43.52;17.83
70141;BME280;57508;43.086;0.136;2022-08-20T09:40:24;96256.69;;;43.41;18.36
70141;BME280;57508;43.086;0.136;2022-08-20T09:42:49;96263.66;;;43.63;17.20
70141;BME280;57508;43.086;0.136;2022-08-20T09:45:16;96270.09;;;44.64;16.91
70141;BME280;57508;43.086;0.136;2022-08-20T09:47:42;96250.84;;;44.61;17.04
70141;BME280;57508;43.086;0.136;2022-08-20T09:50:08;96258.72;;;45.25;15.95
70141;BME280;57508;43.086;0.136;2022-08-20T09:52:36;96250.63;;;44.93;15.63
70141;BME280;57508;43.086;0.136;2022-08-20T09:55:13;96249.31;;;43.82;16.62
70141;BME280;57508;43.086;0.136;2022-08-20T09:57:41;96249.75;;;44.29;16.88
70141;BME280;57508;43.086;0.136;2022-08-20T10:00:08;96247.06;;;44.75;16.85
70141;BME280;57508;43.086;0.136;2022-08-20T10:02:36;96256.16;;;45.50;16.13
70141;BME280;57508;43.086;0.136;2022-08-20T10:05:01;96240.47;;;45.30;16.11
70141;BME280;57508;43.086;0.136;2022-08-20T10:07:26;96245.72;;;46.27;15.33
70141;BME280;57508;43.086;0.136;2022-08-20T10:09:52;96245.25;;;45.58;15.99
70141;BME280;57508;43.086;0.136;2022-08-20T10:12:17;96247.63;;;46.02;15.64
70141;BME280;57508;43.086;0.136;2022-08-20T10:14:43;96248.41;;;46.02;15.30
70141;BME280;57508;43.086;0.136;2022-08-20T10:17:08;96250.44;;;46.50;15.29
70141;BME280;57508;43.086;0.136;2022-08-20T10:19:34;96234.91;;;44.90;16.18
70141;BME280;57508;43.086;0.136;2022-08-20T10:22:00;96240.41;;;44.38;16.08
70141;BME280;57508;43.086;0.136;2022-08-20T10:24:26;96233.66;;;44.97;16.57
70141;BME280;57508;43.086;0.136;2022-08-20T10:26:57;96226.56;;;45.07;16.21
70141;BME280;57508;43.086;0.136;2022-08-20T10:29:23;96228.56;;;46.54;15.33
70141;BME280;57508;43.086;0.136;2022-08-20T10:31:49;96238.97;;;46.11;15.04
70141;BME280;57508;43.086;0.136;2022-08-20T10:34:14;96236.59;;;46.33;15.88
70141;BME280;57508;43.086;0.136;2022-08-20T10:36:41;96239.38;;;46.69;14.81
70141;BME280;57508;43.086;0.136;2022-08-20T10:39:06;96235.09;;;46.99;14.91
70141;BME280;57508;43.086;0.136;2022-08-20T10:41:32;96238.63;;;46.68;14.43
70141;BME280;57508;43.086;0.136;2022-08-20T10:43:57;96233.91;;;46.52;14.86
70141;BME280;57508;43.086;0.136;2022-08-20T10:46:23;96235.81;;;46.74;14.75
70141;BME280;57508;43.086;0.136;2022-08-20T10:48:49;96234.50;;;47.37;14.29
70141;BME280;57508;43.086;0.136;2022-08-20T10:51:14;96235.31;;;47.01;15.66
70141;BME280;57508;43.086;0.136;2022-08-20T10:53:40;96225.69;;;47.77;13.99
70141;BME280;57508;43.086;0.136;2022-08-20T10:56:05;96226.47;;;47.97;15.04
70141;BME280;57508;43.086;0.136;2022-08-20T10:58:31;96229.06;;;47.94;14.41
70141;BME280;57508;43.086;0.136;2022-08-20T11:00:56;96219.13;;;48.13;13.62
70141;BME280;57508;43.086;0.136;2022-08-20T11:03:21;96228.94;;;46.69;14.28
70141;BME280;57508;43.086;0.136;2022-08-20T11:05:47;96230.25;;;47.55;14.51
70141;BME280;57508;43.086;0.136;2022-08-20T11:08:13;96232.75;;;46.41;14.22
70141;BME280;57508;43.086;0.136;2022-08-20T11:10:39;96225.91;;;46.73;14.49
70141;BME280;57508;43.086;0.136;2022-08-20T11:13:06;96220.06;;;45.75;14.58
70141;BME280;57508;43.086;0.136;2022-08-20T11:15:35;96222.81;;;45.92;15.65
70141;BME280;57508;43.086;0.136;2022-08-20T11:18:02;96217.63;;;46.92;14.66
70141;BME280;57508;43.086;0.136;2022-08-20T11:20:28;96212.13;;;46.44;14.58
70141;BME280;57508;43.086;0.136;2022-08-20T11:22:55;96216.19;;;46.80;14.72
70141;BME280;57508;43.086;0.136;2022-08-20T11:25:21;96208.06;;;46.46;14.40
70141;BME280;57508;43.086;0.136;2022-08-20T11:27:48;96212.84;;;44.63;15.47
70141;BME280;57508;43.086;0.136;2022-08-20T11:30:25;96205.50;;;44.49;15.95
70141;BME280;57508;43.086;0.136;2022-08-20T11:32:51;96211.50;;;45.50;14.74
70141;BME280;57508;43.086;0.136;2022-08-20T11:35:16;96207.47;;;45.57;15.84
70141;BME280;57508;43.086;0.136;2022-08-20T11:37:43;96212.19;;;46.69;14.30
70141;BME280;57508;43.086;0.136;2022-08-20T11:40:09;96210.31;;;46.53;13.90
70141;BME280;57508;43.086;0.136;2022-08-20T11:42:36;96211.06;;;44.49;15.00
70141;BME280;57508;43.086;0.136;2022-08-20T11:45:02;96205.25;;;45.27;14.59
70141;BME280;57508;43.086;0.136;2022-08-20T11:47:29;96204.28;;;44.96;14.75
70141;BME280;57508;43.086;0.136;2022-08-20T11:50:04;96198.38;;;46.10;14.83
70141;BME280;57508;43.086;0.136;2022-08-20T11:52:30;96194.78;;;45.62;14.45
70141;BME280;57508;43.086;0.136;2022-08-20T11:54:57;96201.19;;;46.04;15.50
70141;BME280;57508;43.086;0.136;2022-08-20T11:57:24;96197.22;;;45.83;14.57
70141;BME280;57508;43.086;0.136;2022-08-20T11:59:52;96193.41;;;47.01;15.15
70141;BME280;57508;43.086;0.136;2022-08-20T12:02:17;96184.94;;;46.81;15.46
70141;BME280;57508;43.086;0.136;2022-08-20T12:04:43;96177.94;;;47.50;14.57
70141;BME280;57508;43.086;0.136;2022-08-20T12:07:10;96183.50;;;47.00;14.09
70141;BME280;57508;43.086;0.136;2022-08-20T12:09:36;96175.91;;;47.69;13.92
70141;BME280;57508;43.086;0.136;2022-08-20T12:12:02;96166.72;;;47.00;14.10
70141;BME280;57508;43.086;0.136;2022-08-20T12:14:27;96164.16;;;48.10;13.08
70141;BME280;57508;43.086;0.136;2022-08-20T12:16:53;96164.44;;;47.92;13.52
70141;BME280;57508;43.086;0.136;2022-08-20T12:19:18;96162.53;;;47.62;13.67
70141;BME280;57508;43.086;0.136;2022-08-20T12:21:43;96166.53;;;48.05;14.18
70141;BME280;57508;43.086;0.136;2022-08-20T12:24:09;96159.50;;;47.10;13.56
70141;BME280;57508;43.086;0.136;2022-08-20T12:26:34;96155.84;;;47.65;13.77
70141;BME280;57508;43.086;0.136;2022-08-20T12:28:59;96157.53;;;47.93;12.70
70141;BME280;57508;43.086;0.136;2022-08-20T12:31:25;96159.94;;;47.64;13.31
70141;BME280;57508;43.086;0.136;2022-08-20T12:33:50;96155.03;;;47.71;12.70
70141;BME280;57508;43.086;0.136;2022-08-20T12:36:16;96153.19;;;46.79;13.29
70141;BME280;57508;43.086;0.136;2022-08-20T12:38:41;96161.06;;;45.60;15.04
70141;BME280;57508;43.086;0.136;2022-08-20T12:41:06;96140.94;;;46.21;14.72
70141;BME280;57508;43.086;0.136;2022-08-20T12:43:32;96138.53;;;47.23;14.68
70141;BME280;57508;43.086;0.136;2022-08-20T12:45:57;96135.09;;;48.13;14.04
70141;BME280;57508;43.086;0.136;2022-08-20T12:48:23;96135.00;;;48.18;13.53
70141;BME280;57508;43.086;0.136;2022-08-20T12:50:48;96133.09;;;48.46;12.90
70141;BME280;57508;43.086;0.136;2022-08-20T12:53:14;96139.00;;;48.42;13.22
70141;BME280;57508;43.086;0.136;2022-08-20T12:55:40;96136.22;;;48.56;13.07
70141;BME280;57508;43.086;0.136;2022-08-20T12:58:07;96135.75;;;48.38;13.25
70141;BME280;57508;43.086;0.136;2022-08-20T13:00:39;96135.66;;;48.77;12.87
70141;BME280;57508;43.086;0.136;2022-08-20T13:03:10;96129.41;;;48.98;13.16
70141;BME280;57508;43.086;0.136;2022-08-20T13:05:36;96129.25;;;48.63;13.91